createdAt,value
2022-10-02T00:01:50.540Z,25.20
2022-10-02T00:04:29.451Z,23.42
2022-10-02T00:07:01.053Z,27.65
2022-10-02T00:09:39.409Z,21.95
2022-10-02T00:12:14.047Z,22.00
2022-10-02T00:14:46.837Z,21.10
2022-10-02T00:17:20.867Z,30.95
2022-10-02T00:19:53.134Z,24.40
2022-10-02T00:22:25.732Z,27.30
2022-10-02T00:25:21.340Z,23.75
2022-10-02T00:27:54.104Z,22.00
2022-10-02T00:30:20.807Z,29.55
2022-10-02T00:32:57.770Z,21.42
2022-10-02T00:35:46.286Z,24.98
2022-10-02T00:38:21.885Z,20.48
2022-10-02T00:41:30.324Z,21.13
2022-10-02T00:44:18.263Z,23.60
2022-10-02T00:47:12.493Z,19.88
2022-10-02T00:49:43.299Z,24.75
2022-10-02T00:52:24.592Z,15.10
2022-10-02T00:55:23.082Z,25.67
2022-10-02T00:58:14.629Z,19.98
2022-10-02T01:00:50.256Z,25.38
2022-10-02T01:03:37.082Z,23.30
2022-10-02T01:06:03.768Z,23.23
2022-10-02T01:08:30.574Z,21.02
2022-10-02T01:10:57.178Z,25.73
2022-10-02T01:13:26.572Z,23.10
2022-10-02T01:15:55.928Z,15.98
2022-10-02T01:18:25.083Z,20.95
2022-10-02T01:20:54.783Z,23.23
2022-10-02T01:23:28.348Z,22.42
2022-10-02T01:25:57.557Z,17.63
2022-10-02T01:28:24.503Z,20.40
2022-10-02T01:30:55.968Z,15.25
2022-10-02T01:33:25.038Z,29.05
2022-10-02T01:35:51.636Z,21.35
2022-10-02T01:38:22.448Z,26.15
2022-10-02T01:40:49.441Z,21.40
2022-10-02T01:43:24.545Z,23.75
2022-10-02T01:46:07.587Z,18.90
2022-10-02T01:48:40.271Z,16.27
2022-10-02T01:51:37.102Z,29.52
2022-10-02T01:54:45.296Z,26.63
2022-10-02T01:57:42.639Z,21.50
2022-10-02T02:00:17.366Z,26.13
2022-10-02T02:03:45.003Z,20.33
2022-10-02T02:06:23.399Z,20.27
2022-10-02T02:09:02.184Z,24.60
2022-10-02T02:11:29.833Z,25.42
2022-10-02T02:14:16.451Z,26.65
2022-10-02T02:16:48.663Z,28.98
2022-10-02T02:19:17.994Z,25.38
2022-10-02T02:22:16.190Z,25.13
2022-10-02T02:25:03.562Z,35.40
2022-10-02T02:27:39.729Z,28.80
2022-10-02T02:30:12.002Z,22.00
2022-10-02T02:33:02.024Z,25.98
2022-10-02T02:35:43.720Z,28.98
2022-10-02T02:38:24.827Z,24.90
2022-10-02T02:40:54.321Z,26.67
2022-10-02T02:43:31.911Z,23.38
2022-10-02T02:46:07.796Z,25.52
2022-10-02T02:48:43.676Z,28.65
2022-10-02T02:51:30.035Z,23.13
2022-10-02T02:54:31.143Z,21.40
2022-10-02T02:57:00.587Z,23.67
2022-10-02T02:59:31.405Z,23.00
2022-10-02T03:01:58.807Z,31.27
2022-10-02T03:04:25.491Z,18.05
2022-10-02T03:06:58.617Z,32.10
2022-10-02T03:09:26.802Z,35.42
2022-10-02T03:12:10.606Z,26.48
2022-10-02T03:14:52.208Z,29.92
2022-10-02T03:17:28.923Z,30.00
2022-10-02T03:20:22.106Z,35.08
2022-10-02T03:23:13.461Z,23.13
2022-10-02T03:25:51.609Z,27.85
2022-10-02T03:28:56.475Z,22.27
2022-10-02T03:31:27.636Z,22.27
2022-10-02T03:33:54.874Z,24.05
2022-10-02T03:36:24.384Z,22.98
2022-10-02T03:39:12.957Z,26.05
2022-10-02T03:41:43.834Z,18.20
2022-10-02T03:44:10.333Z,20.10
2022-10-02T03:46:37.092Z,22.20
2022-10-02T03:49:06.160Z,20.05
2022-10-02T03:51:32.604Z,21.08
2022-10-02T03:53:59.191Z,30.35
2022-10-02T03:56:31.085Z,17.85
2022-10-02T03:59:03.485Z,17.75
2022-10-02T04:01:35.540Z,17.48
2022-10-02T04:04:07.882Z,19.73
2022-10-02T04:06:48.064Z,19.92
2022-10-02T04:09:37.352Z,16.35
2022-10-02T04:12:17.768Z,20.13
2022-10-02T04:14:53.294Z,17.17
2022-10-02T04:17:26.734Z,11.82
2022-10-02T04:20:16.322Z,14.32
2022-10-02T04:22:52.251Z,14.48
2022-10-02T04:25:20.566Z,15.55
2022-10-02T04:27:57.306Z,10.95
2022-10-02T04:30:26.471Z,11.07
2022-10-02T04:32:56.745Z,16.42
2022-10-02T04:35:43.732Z,17.77
2022-10-02T04:38:34.350Z,10.05
2022-10-02T04:41:32.815Z,6.95
2022-10-02T04:44:27.879Z,14.45
2022-10-02T04:47:19.411Z,16.17
2022-10-02T04:50:13.469Z,8.88
2022-10-02T04:53:01.934Z,9.10
2022-10-02T04:55:56.201Z,18.20
2022-10-02T04:58:46.528Z,15.98
2022-10-02T05:01:55.202Z,8.30
2022-10-02T05:04:53.444Z,11.45
2022-10-02T05:07:38.927Z,10.70
2022-10-02T05:10:14.663Z,13.25
2022-10-02T05:13:16.705Z,14.80
2022-10-02T05:15:53.527Z,18.40
2022-10-02T05:18:41.152Z,10.82
2022-10-02T05:21:22.763Z,8.73
2022-10-02T05:24:13.074Z,14.95
2022-10-02T05:27:16.223Z,18.42
2022-10-02T05:30:01.128Z,14.73
2022-10-02T05:32:54.911Z,15.82
2022-10-02T05:35:34.479Z,20.20
2022-10-02T05:38:45.717Z,20.52
2022-10-02T05:41:32.457Z,17.52
2022-10-02T05:44:20.907Z,22.10
2022-10-02T05:47:06.337Z,25.42
2022-10-02T05:49:38.015Z,14.00
2022-10-02T05:52:19.512Z,24.52
2022-10-02T05:55:04.695Z,20.45
2022-10-02T05:57:36.499Z,18.92
2022-10-02T06:00:09.032Z,21.80
2022-10-02T06:02:45.024Z,20.35
2022-10-02T06:05:26.852Z,23.77
2022-10-02T06:08:02.057Z,28.00
2022-10-02T06:10:41.453Z,18.48
2022-10-02T06:13:18.857Z,22.30
2022-10-02T06:15:59.593Z,24.23
2022-10-02T06:18:31.511Z,25.27
2022-10-02T06:21:10.205Z,21.85
2022-10-02T06:23:46.650Z,22.13
2022-10-02T06:26:23.724Z,24.70
2022-10-02T06:29:26.363Z,24.33
2022-10-02T06:32:14.148Z,25.67
2022-10-02T06:34:42.637Z,23.30
2022-10-02T06:37:36.185Z,22.75
2022-10-02T06:40:21.846Z,24.13
2022-10-02T06:43:00.980Z,20.13
2022-10-02T06:45:53.329Z,28.88
2022-10-02T06:48:48.933Z,29.83
2022-10-02T06:51:30.663Z,32.92
2022-10-02T06:54:06.387Z,26.98
2022-10-02T06:57:11.586Z,24.67
2022-10-02T06:59:57.437Z,18.98
2022-10-02T07:02:41.863Z,25.85
2022-10-02T07:05:36.510Z,21.48
2022-10-02T07:08:05.559Z,18.77
2022-10-02T07:10:56.659Z,27.10
2022-10-02T07:14:09.384Z,21.17
2022-10-02T07:17:05.215Z,17.23
2022-10-02T07:19:53.342Z,23.38
2022-10-02T07:22:50.302Z,20.20
2022-10-02T07:25:45.307Z,19.65
2022-10-02T07:28:17.805Z,20.70
2022-10-02T07:30:56.565Z,22.02
2022-10-02T07:34:03.740Z,24.13
2022-10-02T07:36:42.535Z,23.63
2022-10-02T07:39:09.349Z,26.65
2022-10-02T07:42:13.630Z,16.00
2022-10-02T07:45:11.272Z,20.00
2022-10-02T07:47:43.991Z,14.50
2022-10-02T07:50:33.569Z,16.70
2022-10-02T07:53:39.219Z,13.15
2022-10-02T07:56:20.143Z,17.17
2022-10-02T07:58:57.290Z,14.90
2022-10-02T08:01:32.241Z,17.75
2022-10-02T08:04:07.017Z,17.40
2022-10-02T08:06:34.517Z,17.45
2022-10-02T08:09:01.286Z,10.52
2022-10-02T08:11:47.358Z,11.07
2022-10-02T08:14:38.300Z,14.15
2022-10-02T08:17:10.600Z,15.52
2022-10-02T08:19:42.462Z,15.20
2022-10-02T08:22:33.779Z,17.75
2022-10-02T08:25:06.175Z,13.52
2022-10-02T08:27:53.063Z,13.15
2022-10-02T08:30:19.710Z,17.65
2022-10-02T08:32:47.941Z,18.33
2022-10-02T08:35:21.469Z,13.25
2022-10-02T08:38:10.203Z,19.25
2022-10-02T08:40:58.565Z,20.30
2022-10-02T08:43:59.838Z,15.10
2022-10-02T08:46:59.206Z,16.58
2022-10-02T08:49:47.235Z,13.68
2022-10-02T08:52:42.678Z,15.15
2022-10-02T08:55:31.263Z,8.82
2022-10-02T08:58:19.350Z,19.77
2022-10-02T09:00:45.917Z,16.83
2022-10-02T09:03:33.442Z,17.88
2022-10-02T09:05:59.931Z,14.98
2022-10-02T09:08:35.542Z,17.25
2022-10-02T09:11:20.895Z,14.18
2022-10-02T09:14:10.436Z,11.35
2022-10-02T09:17:01.528Z,11.45
2022-10-02T09:20:13.361Z,21.00
2022-10-02T09:22:52.086Z,14.45
2022-10-02T09:25:25.981Z,10.45
2022-10-02T09:28:04.226Z,14.52
2022-10-02T09:30:42.697Z,14.93
2022-10-02T09:33:27.695Z,24.98
2022-10-02T09:36:01.940Z,11.10
2022-10-02T09:39:06.085Z,14.48
2022-10-02T09:41:38.515Z,13.55
2022-10-02T09:44:23.704Z,12.02
2022-10-02T09:47:19.195Z,16.75
2022-10-02T09:50:23.581Z,9.60
2022-10-02T09:52:53.059Z,16.35
2022-10-02T09:55:35.364Z,12.70
2022-10-02T09:58:23.207Z,17.95
2022-10-02T10:01:18.711Z,15.43
2022-10-02T10:04:14.714Z,11.45
2022-10-02T10:06:49.675Z,13.52
2022-10-02T10:09:36.449Z,11.88
2022-10-02T10:12:05.303Z,15.63
2022-10-02T10:15:14.031Z,12.05
2022-10-02T10:18:11.085Z,9.48
2022-10-02T10:20:51.850Z,10.98
2022-10-02T10:23:36.351Z,11.85
2022-10-02T10:26:34.600Z,14.10
2022-10-02T10:29:09.095Z,13.02
2022-10-02T10:32:03.106Z,14.00
2022-10-02T10:35:11.002Z,12.30
2022-10-02T10:38:14.675Z,13.45
2022-10-02T10:41:12.139Z,10.93
2022-10-02T10:43:57.234Z,9.77
2022-10-02T10:46:59.398Z,12.95
2022-10-02T10:49:38.679Z,10.18
2022-10-02T10:52:25.449Z,16.67
2022-10-02T10:55:07.283Z,12.40
2022-10-02T10:58:00.946Z,14.07
2022-10-02T11:00:30.279Z,12.75
2022-10-02T11:03:41.969Z,10.77
2022-10-02T11:06:41.840Z,12.43
2022-10-02T11:09:35.029Z,13.68
2022-10-02T11:12:30.000Z,7.90
2022-10-02T11:15:27.482Z,9.57
2022-10-02T11:18:03.353Z,10.43
2022-10-02T11:20:47.963Z,9.82
2022-10-02T11:23:41.332Z,12.95
2022-10-02T11:26:32.609Z,13.25
2022-10-02T11:29:11.262Z,9.23
2022-10-02T11:32:10.121Z,11.88
2022-10-02T11:35:13.012Z,9.75
2022-10-02T11:37:42.540Z,10.20
2022-10-02T11:40:21.292Z,15.35
2022-10-02T11:42:56.948Z,8.18
2022-10-02T11:45:29.535Z,9.63
2022-10-02T11:48:33.308Z,11.75
2022-10-02T11:51:21.049Z,18.38
2022-10-02T11:54:09.092Z,9.77
2022-10-02T11:56:56.593Z,12.88
2022-10-02T11:59:51.259Z,13.35
2022-10-02T12:02:41.514Z,11.98
2022-10-02T12:05:31.575Z,8.85
2022-10-02T12:08:17.441Z,10.90
2022-10-02T12:11:01.911Z,6.40
2022-10-02T12:13:54.644Z,12.55
2022-10-02T12:16:45.573Z,8.45
2022-10-02T12:19:39.654Z,10.80
2022-10-02T12:22:31.071Z,7.72
2022-10-02T12:25:30.031Z,10.00
2022-10-02T12:28:14.676Z,7.78
2022-10-02T12:31:02.506Z,17.20
2022-10-02T12:33:48.683Z,9.43
2022-10-02T12:36:33.493Z,15.68
2022-10-02T12:39:13.379Z,9.88
2022-10-02T12:41:54.895Z,9.63
2022-10-02T12:44:36.960Z,8.52
2022-10-02T12:47:09.610Z,11.88
2022-10-02T12:49:59.397Z,11.40
2022-10-02T12:52:44.450Z,9.40
2022-10-02T12:55:48.176Z,11.05
2022-10-02T12:58:26.281Z,13.30
2022-10-02T13:01:04.988Z,10.60
2022-10-02T13:03:52.839Z,12.15
2022-10-02T13:06:29.789Z,8.63
2022-10-02T13:09:21.904Z,10.35
2022-10-02T13:11:55.876Z,15.77
2022-10-02T13:14:46.721Z,9.40
2022-10-02T13:17:19.094Z,13.30
2022-10-02T13:20:00.052Z,10.98
2022-10-02T13:22:35.581Z,11.75
2022-10-02T13:25:17.419Z,11.32
2022-10-02T13:28:13.713Z,11.75
2022-10-02T13:31:00.472Z,10.95
2022-10-02T13:33:42.326Z,9.55
2022-10-02T13:36:17.845Z,11.02
2022-10-02T13:39:16.488Z,8.02
2022-10-02T13:42:02.146Z,9.63
2022-10-02T13:45:07.207Z,9.95
2022-10-02T13:48:03.479Z,8.75
2022-10-02T13:50:46.498Z,5.88
2022-10-02T13:53:34.434Z,9.05
2022-10-02T13:56:17.463Z,9.65
2022-10-02T13:59:11.223Z,5.72
2022-10-02T14:01:53.301Z,12.32
2022-10-02T14:04:38.555Z,10.20
2022-10-02T14:07:17.070Z,6.28
2022-10-02T14:10:02.828Z,7.60
2022-10-02T14:12:40.896Z,8.40
2022-10-02T14:15:23.240Z,8.93
2022-10-02T14:18:40.359Z,14.43
2022-10-02T14:21:33.731Z,9.50
2022-10-02T14:24:13.947Z,13.70
2022-10-02T14:26:59.211Z,9.38
2022-10-02T14:29:48.920Z,9.23
2022-10-02T14:32:26.973Z,4.82
2022-10-02T14:34:58.519Z,13.50
2022-10-02T14:37:55.138Z,6.65
2022-10-02T14:40:25.236Z,6.43
2022-10-02T14:43:06.247Z,7.68
2022-10-02T14:45:41.818Z,10.60
2022-10-02T14:48:10.101Z,10.32
2022-10-02T14:51:00.497Z,7.38
2022-10-02T14:54:00.202Z,11.88
2022-10-02T14:57:19.192Z,6.85
2022-10-02T15:00:01.150Z,6.80
2022-10-02T15:02:59.161Z,10.80
2022-10-02T15:05:37.730Z,13.02
2022-10-02T15:08:14.946Z,6.68
2022-10-02T15:10:43.849Z,8.55
2022-10-02T15:13:26.784Z,10.95
2022-10-02T15:16:27.811Z,11.00
2022-10-02T15:19:18.417Z,4.18
2022-10-02T15:21:56.890Z,7.05
2022-10-02T15:24:31.624Z,7.65
2022-10-02T15:27:23.050Z,5.03
2022-10-02T15:30:15.855Z,10.05
2022-10-02T15:32:42.398Z,5.40
2022-10-02T15:35:08.851Z,5.60
2022-10-02T15:37:47.594Z,9.57
2022-10-02T15:40:34.093Z,7.93
2022-10-02T15:43:27.999Z,13.35
2022-10-02T15:46:03.512Z,9.75
2022-10-02T15:48:55.446Z,7.75
2022-10-02T15:52:00.975Z,8.63
2022-10-02T15:55:04.779Z,8.68
2022-10-02T15:57:57.422Z,10.43
2022-10-02T16:00:26.117Z,9.02
2022-10-02T16:03:07.659Z,10.80
2022-10-02T16:05:55.195Z,13.32
2022-10-02T16:08:29.549Z,8.88
2022-10-02T16:11:15.504Z,10.32
2022-10-02T16:13:51.295Z,13.10
2022-10-02T16:16:36.379Z,11.20
2022-10-02T16:19:15.464Z,11.27
2022-10-02T16:22:17.735Z,9.63
2022-10-02T16:25:18.650Z,13.02
2022-10-02T16:27:52.580Z,16.70
2022-10-02T16:30:25.135Z,11.40
2022-10-02T16:33:00.922Z,7.60
2022-10-02T16:36:01.720Z,10.55
2022-10-02T16:38:47.401Z,11.20
2022-10-02T16:41:25.888Z,14.25
2022-10-02T16:44:11.286Z,10.68
2022-10-02T16:46:50.728Z,8.43
2022-10-02T16:49:43.143Z,9.15
2022-10-02T16:52:54.078Z,8.75
2022-10-02T16:55:33.677Z,12.25
2022-10-02T16:58:24.410Z,9.85
2022-10-02T17:01:22.430Z,6.82
2022-10-02T17:04:06.963Z,9.27
2022-10-02T17:06:49.755Z,12.95
2022-10-02T17:09:48.295Z,9.75
2022-10-02T17:12:42.585Z,5.75
2022-10-02T17:15:25.501Z,8.20
2022-10-02T17:18:25.969Z,9.57
2022-10-02T17:21:07.829Z,12.13
2022-10-02T17:24:05.688Z,12.98
2022-10-02T17:26:40.768Z,7.43
2022-10-02T17:29:27.866Z,8.45
2022-10-02T17:32:01.536Z,13.75
2022-10-02T17:34:34.590Z,11.35
2022-10-02T17:37:09.970Z,11.93
2022-10-02T17:40:03.182Z,15.55
2022-10-02T17:42:32.823Z,13.85
2022-10-02T17:45:08.290Z,12.23
2022-10-02T17:47:45.635Z,11.35
2022-10-02T17:50:31.279Z,9.32
2022-10-02T17:53:58.736Z,13.00
2022-10-02T17:56:52.024Z,8.70
2022-10-02T17:59:40.713Z,8.02
2022-10-02T18:02:10.149Z,9.02
2022-10-02T18:04:56.926Z,12.63
2022-10-02T18:07:46.404Z,7.93
2022-10-02T18:10:33.514Z,13.65
2022-10-02T18:13:21.318Z,12.82
2022-10-02T18:16:29.649Z,10.43
2022-10-02T18:19:14.934Z,9.15
2022-10-02T18:22:08.126Z,17.02
2022-10-02T18:24:51.976Z,15.82
2022-10-02T18:27:46.571Z,14.60
2022-10-02T18:30:21.669Z,11.27
2022-10-02T18:33:24.220Z,8.40
2022-10-02T18:36:01.022Z,8.55
2022-10-02T18:38:31.525Z,10.73
2022-10-02T18:41:20.341Z,9.82
2022-10-02T18:44:26.182Z,14.13
2022-10-02T18:47:14.488Z,9.90
2022-10-02T18:50:01.734Z,10.98
2022-10-02T18:52:47.289Z,13.75
2022-10-02T18:55:27.540Z,13.55
2022-10-02T18:58:21.729Z,10.25
2022-10-02T19:01:00.546Z,11.27
2022-10-02T19:03:58.030Z,16.38
2022-10-02T19:06:55.707Z,11.90
2022-10-02T19:09:30.099Z,12.25
2022-10-02T19:12:12.709Z,11.85
2022-10-02T19:14:45.561Z,13.60
2022-10-02T19:17:14.184Z,14.63
2022-10-02T19:19:42.314Z,13.57
2022-10-02T19:22:18.827Z,10.43
2022-10-02T19:24:49.178Z,12.00
2022-10-02T19:27:25.552Z,12.65
2022-10-02T19:29:58.089Z,11.52
2022-10-02T19:32:36.702Z,14.85
2022-10-02T19:35:19.110Z,17.73
2022-10-02T19:37:48.782Z,10.23
2022-10-02T19:40:23.012Z,15.75
2022-10-02T19:43:03.980Z,12.55
2022-10-02T19:45:34.457Z,9.40
2022-10-02T19:48:06.846Z,16.80
2022-10-02T19:50:47.001Z,11.23
2022-10-02T19:53:36.382Z,13.13
2022-10-02T19:56:09.956Z,13.40
2022-10-02T19:58:44.171Z,10.93
2022-10-02T20:01:44.782Z,18.70
2022-10-02T20:04:18.346Z,13.32
2022-10-02T20:06:49.771Z,18.88
2022-10-02T20:09:46.317Z,17.98
2022-10-02T20:12:15.953Z,12.40
2022-10-02T20:14:54.445Z,13.85
2022-10-02T20:17:21.917Z,17.67
2022-10-02T20:19:58.828Z,19.50
2022-10-02T20:22:37.692Z,12.80
2022-10-02T20:25:26.520Z,14.23
2022-10-02T20:28:14.487Z,13.00
2022-10-02T20:31:05.607Z,9.82
2022-10-02T20:33:50.476Z,13.25
2022-10-02T20:36:26.630Z,16.48
2022-10-02T20:39:00.016Z,7.72
2022-10-02T20:41:36.120Z,11.27
2022-10-02T20:44:06.403Z,11.27
2022-10-02T20:47:11.957Z,12.80
2022-10-02T20:49:57.078Z,12.70
2022-10-02T20:53:05.921Z,10.02
2022-10-02T20:56:03.913Z,11.18
2022-10-02T20:58:49.287Z,9.00
2022-10-02T21:01:45.128Z,14.75
2022-10-02T21:04:39.689Z,10.98
2022-10-02T21:07:24.496Z,11.68
2022-10-02T21:10:09.894Z,18.55
2022-10-02T21:13:14.206Z,13.13
2022-10-02T21:15:54.769Z,11.85
2022-10-02T21:18:58.155Z,7.82
2022-10-02T21:22:02.498Z,12.00
2022-10-02T21:24:56.847Z,10.90
2022-10-02T21:27:52.026Z,11.63
2022-10-02T21:30:22.049Z,12.82
2022-10-02T21:33:10.864Z,9.57
2022-10-02T21:35:44.080Z,10.98
2022-10-02T21:38:13.130Z,10.73
2022-10-02T21:41:19.623Z,8.57
2022-10-02T21:44:24.952Z,8.50
2022-10-02T21:46:57.291Z,16.10
2022-10-02T21:49:45.178Z,10.75
2022-10-02T21:52:32.949Z,16.23
2022-10-02T21:55:30.037Z,14.65
2022-10-02T21:58:21.365Z,15.43
2022-10-02T22:01:09.142Z,7.28
2022-10-02T22:04:10.140Z,10.52
2022-10-02T22:06:52.489Z,12.77
2022-10-02T22:09:45.857Z,15.32
2022-10-02T22:13:11.290Z,11.60
2022-10-02T22:15:38.039Z,11.00
2022-10-02T22:18:31.325Z,12.05
2022-10-02T22:21:11.136Z,10.55
2022-10-02T22:23:54.780Z,14.55
2022-10-02T22:26:42.852Z,8.95
2022-10-02T22:29:47.214Z,14.65
2022-10-02T22:33:09.730Z,7.95
2022-10-02T22:35:44.539Z,10.10
2022-10-02T22:38:15.450Z,14.20
2022-10-02T22:40:53.908Z,10.82
2022-10-02T22:43:43.502Z,15.40
2022-10-02T22:46:28.287Z,8.48
2022-10-02T22:49:17.534Z,16.05
2022-10-02T22:51:59.345Z,10.82
2022-10-02T22:55:03.000Z,15.13
2022-10-02T22:57:59.066Z,12.23
2022-10-02T23:00:31.705Z,14.48
2022-10-02T23:03:24.757Z,12.55
2022-10-02T23:05:59.046Z,7.15
2022-10-02T23:08:51.218Z,9.55
2022-10-02T23:11:25.065Z,9.77
2022-10-02T23:14:01.605Z,11.90
2022-10-02T23:16:42.818Z,11.55
2022-10-02T23:19:21.110Z,12.73
2022-10-02T23:21:53.450Z,11.57
2022-10-02T23:24:41.593Z,9.43
2022-10-02T23:27:21.440Z,19.90
2022-10-02T23:30:05.122Z,17.42
2022-10-02T23:32:46.948Z,7.45
2022-10-02T23:35:13.406Z,13.13
2022-10-02T23:38:00.826Z,10.18
2022-10-02T23:41:13.981Z,13.52
2022-10-02T23:43:59.621Z,8.50
2022-10-02T23:46:32.944Z,9.43
2022-10-02T23:48:59.528Z,9.50
2022-10-02T23:51:53.618Z,11.70
2022-10-02T23:54:46.388Z,12.88
2022-10-02T23:57:18.986Z,9.35
